TimePST,TemperatureF,Dew PointF,Humidity,Sea Level PressureIn,VisibilityMPH,Wind Direction,Wind SpeedMPH,Gust SpeedMPH,PrecipitationIn,Events,Conditions,WindDirDegrees,DateUTC
12:53 AM,12.9,10.9,92,30.35,8.0,NE,4.6,-,N/A,,Clear,50,2013-01-09 08:53:00
1:53 AM,12.9,10.0,88,30.32,9.0,East,3.5,-,N/A,,Clear,100,2013-01-09 09:53:00
2:53 AM,14.0,12.0,92,30.29,8.0,WNW,4.6,-,N/A,,Clear,290,2013-01-09 10:53:00
3:53 AM,12.0,9.0,88,30.27,7.0,SE,5.8,-,N/A,,Clear,130,2013-01-09 11:53:00
4:53 AM,12.0,10.0,92,30.27,8.0,WNW,3.5,-,N/A,,Clear,290,2013-01-09 12:53:00
5:53 AM,14.0,12.9,95,30.24,7.0,West,3.5,-,N/A,,Clear,270,2013-01-09 13:53:00
6:53 AM,14.0,12.0,92,30.23,9.0,East,4.6,-,N/A,,Clear,100,2013-01-09 14:53:00
7:53 AM,15.1,12.0,88,30.23,7.0,Calm,Calm,-,N/A,,Clear,0,2013-01-09 15:53:00
8:53 AM,16.0,12.9,88,30.22,8.0,WNW,3.5,-,N/A,,Clear,290,2013-01-09 16:53:00
10:53 AM,27.0,23.0,85,30.12,8.0,Calm,Calm,-,N/A,,Clear,0,2013-01-09 18:53:00
11:53 AM,30.9,24.1,76,30.05,9.0,Calm,Calm,-,N/A,,Clear,0,2013-01-09 19:53:00
12:53 PM,36.0,27.0,70,29.99,10.0,Calm,Calm,-,N/A,,Clear,0,2013-01-09 20:53:00
1:53 PM,37.9,28.9,70,29.95,10.0,East,5.8,-,N/A,,Clear,100,2013-01-09 21:53:00
2:53 PM,37.0,28.9,73,29.92,10.0,Calm,Calm,-,N/A,,Clear,0,2013-01-09 22:53:00
3:53 PM,37.9,30.0,73,29.89,10.0,Calm,Calm,-,N/A,,Clear,0,2013-01-09 23:53:00
4:53 PM,33.1,27.0,78,29.87,10.0,Calm,Calm,-,N/A,,Clear,0,2013-01-10 00:53:00
5:53 PM,28.0,24.1,85,29.86,10.0,Calm,Calm,-,N/A,,Clear,0,2013-01-10 01:53:00
6:53 PM,30.0,26.1,85,29.84,9.0,ESE,6.9,-,N/A,,Clear,110,2013-01-10 02:53:00
7:53 PM,30.0,26.1,85,29.81,9.0,WNW,6.9,-,N/A,,Mostly Cloudy,300,2013-01-10 03:53:00
8:53 PM,30.0,26.1,85,29.77,9.0,ESE,6.9,-,N/A,,Clear,120,2013-01-10 04:53:00
9:53 PM,30.9,26.1,82,29.74,10.0,SSW,4.6,-,N/A,,Clear,200,2013-01-10 05:53:00
10:53 PM,26.1,21.0,81,29.72,10.0,South,4.6,-,N/A,,Clear,180,2013-01-10 06:53:00
11:53 PM,34.0,30.9,89,29.72,8.0,WNW,31.1,38.0,0.00,Snow,Light Snow,290,2013-01-10 07:53:00